createdAt,value
2022-11-11T00:01:33.627Z,1.00
2022-11-11T00:04:01.066Z,1.02
2022-11-11T00:06:28.441Z,0.90
2022-11-11T00:08:55.797Z,1.10
2022-11-11T00:11:23.128Z,1.13
2022-11-11T00:13:50.517Z,0.93
2022-11-11T00:16:20.177Z,1.20
2022-11-11T00:19:06.330Z,1.15
2022-11-11T00:21:52.677Z,1.13
2022-11-11T00:24:41.034Z,1.00
2022-11-11T00:27:09.985Z,0.73
2022-11-11T00:29:38.502Z,0.80
2022-11-11T00:32:26.397Z,1.10
2022-11-11T00:35:14.347Z,0.77
2022-11-11T00:37:42.907Z,0.68
2022-11-11T00:40:11.785Z,0.98
2022-11-11T00:42:39.954Z,1.08
2022-11-11T00:45:08.341Z,1.00
2022-11-11T00:47:54.705Z,1.55
2022-11-11T00:50:43.765Z,0.98
2022-11-11T00:53:20.479Z,0.75
2022-11-11T00:55:52.598Z,0.90
2022-11-11T00:58:20.171Z,0.65
2022-11-11T01:00:50.201Z,0.90
2022-11-11T01:03:17.612Z,0.55
2022-11-11T01:05:44.975Z,1.15
2022-11-11T01:08:12.352Z,0.88
2022-11-11T01:10:40.080Z,0.80
2022-11-11T01:13:16.507Z,1.00
2022-11-11T01:15:46.719Z,1.05
2022-11-11T01:18:16.241Z,0.88
2022-11-11T01:20:44.090Z,1.30
2022-11-11T01:23:13.120Z,1.17
2022-11-11T01:25:42.822Z,0.80
2022-11-11T01:28:10.618Z,1.33
2022-11-11T01:30:38.151Z,1.08
2022-11-11T01:33:05.592Z,0.93
2022-11-11T01:35:37.652Z,1.00
2022-11-11T01:38:05.119Z,1.13
2022-11-11T01:40:41.393Z,0.90
2022-11-11T01:43:08.883Z,0.82
2022-11-11T01:45:50.203Z,1.10
2022-11-11T01:49:00.303Z,1.13
2022-11-11T01:52:18.603Z,0.93
2022-11-11T01:54:55.578Z,0.88
2022-11-11T01:57:32.802Z,1.17
2022-11-11T02:00:12.760Z,0.90
2022-11-11T02:02:51.224Z,1.10
2022-11-11T02:05:40.658Z,1.00
2022-11-11T02:08:32.431Z,0.98
2022-11-11T02:11:05.642Z,0.90
2022-11-11T02:13:56.517Z,1.17
2022-11-11T02:16:24.486Z,0.95
2022-11-11T02:18:52.639Z,1.20
2022-11-11T02:21:33.766Z,1.25
2022-11-11T02:26:30.543Z,0.90
2022-11-11T02:28:58.576Z,1.23
2022-11-11T02:31:29.732Z,1.20
2022-11-11T02:33:57.374Z,1.38
2022-11-11T02:36:25.132Z,1.27
2022-11-11T02:38:52.935Z,1.48
2022-11-11T02:41:39.279Z,1.40
2022-11-11T02:44:06.805Z,1.15
2022-11-11T02:46:34.991Z,1.50
2022-11-11T02:49:02.359Z,1.33
2022-11-11T02:51:29.707Z,1.83
2022-11-11T02:53:59.111Z,1.60
2022-11-11T02:56:45.267Z,1.13
2022-11-11T02:59:12.884Z,1.20
2022-11-11T03:01:40.459Z,1.10
2022-11-11T03:04:08.556Z,1.30
2022-11-11T03:06:36.363Z,1.15
2022-11-11T03:09:03.959Z,1.30
2022-11-11T03:11:31.363Z,1.17
2022-11-11T03:14:00.180Z,1.13
2022-11-11T03:16:46.763Z,1.35
2022-11-11T03:19:14.325Z,1.42
2022-11-11T03:24:53.569Z,1.25
2022-11-11T03:27:20.903Z,1.00
2022-11-11T03:29:48.263Z,1.20
2022-11-11T03:32:15.647Z,0.93
2022-11-11T03:34:43.033Z,1.25
2022-11-11T03:37:29.836Z,1.42
2022-11-11T03:39:57.245Z,1.23
2022-11-11T03:42:24.561Z,1.45
2022-11-11T03:44:51.927Z,1.08
2022-11-11T03:47:21.010Z,1.17
2022-11-11T03:49:48.480Z,1.73
2022-11-11T03:52:16.873Z,1.23
2022-11-11T03:54:44.234Z,1.50
2022-11-11T03:57:30.210Z,1.10
2022-11-11T03:59:57.610Z,1.50
2022-11-11T04:02:43.314Z,1.55
2022-11-11T04:05:29.159Z,1.20
2022-11-11T04:08:19.559Z,1.45
2022-11-11T04:10:46.979Z,1.90
2022-11-11T04:13:33.123Z,1.35
2022-11-11T04:16:06.320Z,1.23
2022-11-11T04:18:53.958Z,1.35
2022-11-11T04:21:40.630Z,1.52
2022-11-11T04:24:28.049Z,1.25
2022-11-11T04:26:57.643Z,1.60
2022-11-11T04:29:31.281Z,1.20
2022-11-11T04:32:21.552Z,1.10
2022-11-11T04:34:53.831Z,1.10
2022-11-11T04:37:22.627Z,1.70
2022-11-11T04:40:08.693Z,1.40
2022-11-11T04:42:36.146Z,1.15
2022-11-11T04:45:22.618Z,1.13
2022-11-11T04:48:00.500Z,1.65
2022-11-11T04:50:33.239Z,1.50
2022-11-11T04:53:01.284Z,1.23
2022-11-11T04:55:47.482Z,1.42
2022-11-11T04:58:15.983Z,1.10
2022-11-11T05:00:43.323Z,1.15
2022-11-11T05:03:24.597Z,1.20
2022-11-11T05:06:13.513Z,1.10
2022-11-11T05:08:59.367Z,1.20
2022-11-11T05:11:34.904Z,1.20
2022-11-11T05:14:23.459Z,1.15
2022-11-11T05:17:11.294Z,1.38
2022-11-11T05:19:57.612Z,2.17
2022-11-11T05:22:40.061Z,1.17
2022-11-11T05:25:26.664Z,1.38
2022-11-11T05:27:54.781Z,1.17
2022-11-11T05:30:23.342Z,1.70
2022-11-11T05:32:50.998Z,2.22
2022-11-11T05:35:18.963Z,1.17
2022-11-11T05:38:09.281Z,1.05
2022-11-11T05:40:36.714Z,1.33
2022-11-11T05:43:04.101Z,1.10
2022-11-11T05:45:31.447Z,1.33
2022-11-11T05:48:02.717Z,1.15
2022-11-11T05:50:30.043Z,1.35
2022-11-11T05:52:57.560Z,1.58
2022-11-11T05:55:24.925Z,1.67
2022-11-11T05:57:52.230Z,1.20
2022-11-11T06:00:19.932Z,1.20
2022-11-11T06:02:47.392Z,1.40
2022-11-11T06:05:14.766Z,1.40
2022-11-11T06:07:42.134Z,1.65
2022-11-11T06:10:28.942Z,1.73
2022-11-11T06:13:04.772Z,2.45
2022-11-11T06:15:33.240Z,1.27
2022-11-11T06:18:01.503Z,1.20
2022-11-11T06:20:28.916Z,1.73
2022-11-11T06:22:56.891Z,1.58
2022-11-11T06:25:43.482Z,1.17
2022-11-11T06:28:11.790Z,1.38
2022-11-11T06:30:50.195Z,1.40
2022-11-11T06:33:18.667Z,1.33
2022-11-11T06:35:46.473Z,1.20
2022-11-11T06:38:13.878Z,1.40
2022-11-11T06:40:43.141Z,1.10
2022-11-11T06:43:11.175Z,1.40
2022-11-11T06:45:39.047Z,1.30
2022-11-11T06:48:07.245Z,1.98
2022-11-11T06:50:35.714Z,1.50
2022-11-11T06:53:07.684Z,1.33
2022-11-11T06:55:35.415Z,1.40
2022-11-11T06:58:17.130Z,1.58
2022-11-11T07:00:46.592Z,2.40
2022-11-11T07:03:20.350Z,1.67
2022-11-11T07:05:58.545Z,1.50
2022-11-11T07:08:27.087Z,1.35
2022-11-11T07:10:54.768Z,1.80
2022-11-11T07:13:22.302Z,1.20
2022-11-11T07:15:49.667Z,1.67
2022-11-11T07:18:17.000Z,2.03
2022-11-11T07:20:44.382Z,1.70
2022-11-11T07:23:11.809Z,1.70
2022-11-11T07:25:39.114Z,1.10
2022-11-11T07:28:06.437Z,1.70
2022-11-11T07:30:33.781Z,1.65
2022-11-11T07:33:01.126Z,1.75
2022-11-11T07:35:28.478Z,1.48
2022-11-11T07:37:55.884Z,1.60
2022-11-11T07:40:23.258Z,1.63
2022-11-11T07:42:50.685Z,2.80
2022-11-11T07:45:18.020Z,1.67
2022-11-11T07:47:45.798Z,2.65
2022-11-11T07:50:13.824Z,1.30
2022-11-11T07:52:41.487Z,1.35
2022-11-11T07:55:09.495Z,1.30
2022-11-11T07:57:37.028Z,1.42
2022-11-11T08:00:05.775Z,1.70
2022-11-11T08:02:33.362Z,1.42
2022-11-11T08:05:00.731Z,1.90
2022-11-11T08:07:28.153Z,1.65
2022-11-11T08:09:55.512Z,1.95
2022-11-11T08:12:41.557Z,1.65
2022-11-11T08:15:09.149Z,1.58
2022-11-11T08:17:39.788Z,1.60
2022-11-11T08:20:09.363Z,1.15
2022-11-11T08:22:41.664Z,1.73
2022-11-11T08:25:14.616Z,1.58
2022-11-11T08:27:42.864Z,2.58
2022-11-11T08:30:11.203Z,1.52
2022-11-11T08:32:38.659Z,1.92
2022-11-11T08:35:08.210Z,1.70
2022-11-11T08:37:35.562Z,1.67
2022-11-11T08:40:03.044Z,1.30
2022-11-11T08:42:31.536Z,1.38
2022-11-11T08:44:58.972Z,2.30
2022-11-11T08:47:26.356Z,1.17
2022-11-11T08:49:53.725Z,1.75
2022-11-11T08:52:21.071Z,1.30
2022-11-11T08:54:48.433Z,1.20
2022-11-11T08:57:15.844Z,1.80
2022-11-11T08:59:43.250Z,1.48
2022-11-11T09:02:14.616Z,1.40
2022-11-11T09:04:46.502Z,1.73
2022-11-11T09:07:15.854Z,1.55
2022-11-11T09:09:43.261Z,1.70
2022-11-11T09:12:10.657Z,1.17
2022-11-11T09:14:38.052Z,1.20
2022-11-11T09:17:06.539Z,1.70
2022-11-11T09:19:33.915Z,1.33
2022-11-11T09:22:01.301Z,1.77
2022-11-11T09:24:28.829Z,1.70
2022-11-11T09:26:56.282Z,2.35
2022-11-11T09:29:23.701Z,1.52
2022-11-11T09:31:51.222Z,1.67
2022-11-11T09:34:18.785Z,2.38
2022-11-11T09:36:46.194Z,1.85
2022-11-11T09:39:13.613Z,1.80
2022-11-11T09:41:55.751Z,1.80
2022-11-11T09:44:52.254Z,2.03
2022-11-11T09:47:28.744Z,1.73
2022-11-11T09:50:01.465Z,1.70
2022-11-11T09:52:32.010Z,1.77
2022-11-11T09:55:01.652Z,1.73
2022-11-11T09:57:39.449Z,2.05
2022-11-11T10:00:23.157Z,1.52
2022-11-11T10:02:55.341Z,1.90
2022-11-11T10:05:27.569Z,1.73
2022-11-11T10:08:04.798Z,2.00
2022-11-11T10:10:41.274Z,1.75
2022-11-11T10:13:31.956Z,2.50
2022-11-11T10:16:15.399Z,2.33
2022-11-11T10:19:07.873Z,2.00
2022-11-11T10:22:13.877Z,2.88
2022-11-11T10:24:45.823Z,2.50
2022-11-11T10:27:23.072Z,1.63
2022-11-11T10:29:50.811Z,2.05
2022-11-11T10:32:21.330Z,2.00
2022-11-11T10:34:49.859Z,2.47
2022-11-11T10:37:21.447Z,2.38
2022-11-11T10:40:21.934Z,2.08
2022-11-11T10:42:49.401Z,2.70
2022-11-11T10:45:22.664Z,2.65
2022-11-11T10:48:00.567Z,1.70
2022-11-11T10:50:59.685Z,2.17
2022-11-11T10:53:42.380Z,1.85
2022-11-11T10:56:30.784Z,2.35
2022-11-11T10:59:26.623Z,2.10
2022-11-11T11:02:13.811Z,2.17
2022-11-11T11:04:52.492Z,2.10
2022-11-11T11:07:30.977Z,2.70
2022-11-11T11:10:19.372Z,1.67
2022-11-11T11:12:57.412Z,1.77
2022-11-11T11:15:28.789Z,2.40
2022-11-11T11:20:32.814Z,1.80
2022-11-11T11:23:02.057Z,2.20
2022-11-11T11:25:33.565Z,1.77
2022-11-11T11:28:12.961Z,2.20
2022-11-11T11:30:40.505Z,1.95
2022-11-11T11:33:09.805Z,1.90
2022-11-11T11:35:39.703Z,2.20
2022-11-11T11:38:09.512Z,2.10
2022-11-11T11:40:57.047Z,1.90
2022-11-11T11:43:36.353Z,1.85
2022-11-11T11:46:16.068Z,1.73
2022-11-11T11:49:02.109Z,1.92
2022-11-11T11:51:44.143Z,1.80
2022-11-11T11:54:20.250Z,2.08
2022-11-11T11:56:59.469Z,2.28
2022-11-11T11:59:35.666Z,1.90
2022-11-11T12:02:26.207Z,2.45
2022-11-11T12:05:22.316Z,1.70
2022-11-11T12:08:00.039Z,1.90
2022-11-11T12:10:45.582Z,2.22
2022-11-11T12:13:12.900Z,1.80
2022-11-11T12:15:59.067Z,2.03
2022-11-11T12:18:55.260Z,2.03
2022-11-11T12:21:29.236Z,1.58
2022-11-11T12:24:11.435Z,2.65
2022-11-11T12:27:14.312Z,1.85
2022-11-11T12:30:00.155Z,2.15
2022-11-11T12:32:48.375Z,2.40
2022-11-11T12:35:42.090Z,2.20
2022-11-11T12:38:36.819Z,2.20
2022-11-11T12:41:41.021Z,2.45
2022-11-11T12:44:10.342Z,1.80
2022-11-11T12:46:52.888Z,2.30
2022-11-11T12:49:40.551Z,2.47
2022-11-11T12:52:29.932Z,2.08
2022-11-11T12:55:40.205Z,2.05
2022-11-11T12:58:17.194Z,1.83
2022-11-11T13:00:53.397Z,2.72
2022-11-11T13:03:40.181Z,2.65
2022-11-11T13:06:28.312Z,3.33
2022-11-11T13:09:10.543Z,2.13
2022-11-11T13:11:43.984Z,2.30
2022-11-11T13:14:40.332Z,2.80
2022-11-11T13:17:13.949Z,2.05
2022-11-11T13:19:51.746Z,2.75
2022-11-11T13:22:29.104Z,2.38
2022-11-11T13:24:58.695Z,2.03
2022-11-11T13:27:29.474Z,2.45
2022-11-11T13:30:34.323Z,3.30
2022-11-11T13:33:26.143Z,2.80
2022-11-11T13:35:58.640Z,2.25
2022-11-11T13:38:27.932Z,3.53
2022-11-11T13:40:59.357Z,2.75
2022-11-11T13:43:30.257Z,2.17
2022-11-11T13:48:33.911Z,2.33
2022-11-11T13:51:11.650Z,1.90
2022-11-11T13:53:40.515Z,2.60
2022-11-11T13:56:11.726Z,2.35
2022-11-11T13:58:47.372Z,2.50
2022-11-11T14:01:16.277Z,2.03
2022-11-11T14:03:43.670Z,1.92
2022-11-11T14:06:17.115Z,1.90
2022-11-11T14:08:47.537Z,2.17
2022-11-11T14:11:27.343Z,2.78
2022-11-11T14:13:58.996Z,1.85
2022-11-11T14:16:35.588Z,2.63
2022-11-11T14:19:19.117Z,2.40
2022-11-11T14:21:48.540Z,2.35
2022-11-11T14:24:34.082Z,3.20
2022-11-11T14:27:03.731Z,1.90
2022-11-11T14:29:38.112Z,1.67
2022-11-11T14:32:14.321Z,2.13
2022-11-11T14:35:15.379Z,2.33
2022-11-11T14:37:52.868Z,2.78
2022-11-11T14:40:31.898Z,2.30
2022-11-11T14:43:20.168Z,2.13
2022-11-11T14:45:53.466Z,2.78
2022-11-11T14:48:51.625Z,2.58
2022-11-11T14:51:56.241Z,2.45
2022-11-11T14:54:50.323Z,3.72
2022-11-11T14:57:25.400Z,1.77
2022-11-11T14:59:56.067Z,2.20
2022-11-11T15:02:34.919Z,2.20
2022-11-11T15:05:05.503Z,2.35
2022-11-11T15:08:09.935Z,2.38
2022-11-11T15:10:40.012Z,1.83
2022-11-11T15:13:36.607Z,3.03
2022-11-11T15:16:23.395Z,6.45
2022-11-11T15:19:24.763Z,5.82
2022-11-11T15:22:07.547Z,2.45
2022-11-11T15:24:51.134Z,2.33
2022-11-11T15:27:36.618Z,2.03
2022-11-11T15:30:18.063Z,2.63
2022-11-11T15:33:00.815Z,1.60
2022-11-11T15:35:46.090Z,2.05
2022-11-11T15:38:16.435Z,1.90
2022-11-11T15:40:47.578Z,2.03
2022-11-11T15:43:19.193Z,2.67
2022-11-11T15:45:50.396Z,1.67
2022-11-11T15:48:21.352Z,2.15
2022-11-11T15:53:26.977Z,2.15
2022-11-11T15:55:57.520Z,2.60
2022-11-11T15:58:28.431Z,2.43
2022-11-11T16:00:58.408Z,1.88
2022-11-11T16:03:42.289Z,2.38
2022-11-11T16:06:15.376Z,1.65
2022-11-11T16:08:44.551Z,2.50
2022-11-11T16:11:14.791Z,2.42
2022-11-11T16:14:08.143Z,2.40
2022-11-11T16:16:39.172Z,2.70
2022-11-11T16:19:16.041Z,2.00
2022-11-11T16:21:50.697Z,1.88
2022-11-11T16:24:26.908Z,1.98
2022-11-11T16:26:55.400Z,2.08
2022-11-11T16:29:24.637Z,2.17
2022-11-11T16:31:52.093Z,2.10
2022-11-11T16:34:28.317Z,2.30
2022-11-11T16:37:12.550Z,2.13
2022-11-11T16:39:46.796Z,2.10
2022-11-11T16:42:22.486Z,3.20
2022-11-11T16:45:05.330Z,1.35
2022-11-11T16:47:32.911Z,1.80
2022-11-11T16:50:17.047Z,1.90
2022-11-11T16:53:07.473Z,1.90
2022-11-11T16:55:45.407Z,2.00
2022-11-11T16:58:21.989Z,1.60
2022-11-11T17:00:58.740Z,1.60
2022-11-11T17:03:26.937Z,1.60
2022-11-11T17:06:07.790Z,2.03
2022-11-11T17:08:42.333Z,2.50
2022-11-11T17:11:32.380Z,1.83
2022-11-11T17:13:59.758Z,2.00
2022-11-11T17:16:27.176Z,2.38
2022-11-11T17:18:54.575Z,2.10
2022-11-11T17:21:21.896Z,2.10
2022-11-11T17:23:49.258Z,2.03
2022-11-11T17:26:22.647Z,1.83
2022-11-11T17:28:49.843Z,1.90
2022-11-11T17:31:17.130Z,2.53
2022-11-11T17:33:44.526Z,2.35
2022-11-11T17:36:12.325Z,2.22
2022-11-11T17:38:39.779Z,2.40
2022-11-11T17:41:07.187Z,3.08
2022-11-11T17:43:34.666Z,2.00
2022-11-11T17:46:03.832Z,2.20
2022-11-11T17:48:31.323Z,2.42
2022-11-11T17:50:58.948Z,3.00
2022-11-11T17:53:26.800Z,2.30
2022-11-11T17:55:54.399Z,2.50
2022-11-11T17:58:21.798Z,2.10
2022-11-11T18:00:49.198Z,2.80
2022-11-11T18:03:16.801Z,2.30
2022-11-11T18:05:44.155Z,2.13
2022-11-11T18:08:11.681Z,3.13
2022-11-11T18:10:39.432Z,2.60
2022-11-11T18:13:06.845Z,2.78
2022-11-11T18:15:34.786Z,2.35
2022-11-11T18:18:02.153Z,2.20
2022-11-11T18:20:29.553Z,2.47
2022-11-11T18:22:57.185Z,2.13
2022-11-11T18:25:24.736Z,2.70
2022-11-11T18:27:55.340Z,2.45
2022-11-11T18:30:22.799Z,2.78
2022-11-11T18:32:50.203Z,3.08
2022-11-11T18:35:18.752Z,2.85
2022-11-11T18:37:46.837Z,2.53
2022-11-11T18:40:14.673Z,2.75
2022-11-11T18:42:42.131Z,2.88
2022-11-11T18:45:09.662Z,3.80
2022-11-11T18:47:37.082Z,2.90
2022-11-11T18:50:04.795Z,3.30
2022-11-11T18:52:32.151Z,2.67
2022-11-11T18:54:59.548Z,2.83
2022-11-11T18:57:26.970Z,2.22
2022-11-11T18:59:54.418Z,2.80
2022-11-11T19:02:21.829Z,3.30
2022-11-11T19:04:49.176Z,2.78
2022-11-11T19:07:16.576Z,2.45
2022-11-11T19:09:44.002Z,3.15
2022-11-11T19:12:11.338Z,3.17
2022-11-11T19:14:38.746Z,2.65
2022-11-11T19:17:06.533Z,2.90
2022-11-11T19:19:34.864Z,2.33
2022-11-11T19:22:02.415Z,1.90
2022-11-11T19:24:33.715Z,2.65
2022-11-11T19:27:01.338Z,2.47
2022-11-11T19:29:28.678Z,2.38
2022-11-11T19:31:56.031Z,2.53
2022-11-11T19:34:23.395Z,2.60
2022-11-11T19:36:50.776Z,2.40
2022-11-11T19:39:18.112Z,2.40
2022-11-11T19:41:45.536Z,3.70
2022-11-11T19:44:12.928Z,2.35
2022-11-11T19:46:40.274Z,2.78
2022-11-11T19:49:07.675Z,2.25
2022-11-11T19:51:35.186Z,2.40
2022-11-11T19:54:02.573Z,2.70
2022-11-11T19:56:31.025Z,2.50
2022-11-11T19:58:58.943Z,3.15
2022-11-11T20:01:27.393Z,2.33
2022-11-11T20:03:57.684Z,2.63
2022-11-11T20:06:27.696Z,2.70
2022-11-11T20:08:56.545Z,2.28
2022-11-11T20:11:24.106Z,2.47
2022-11-11T20:13:51.456Z,2.03
2022-11-11T20:16:19.111Z,2.85
2022-11-11T20:18:46.566Z,2.63
2022-11-11T20:21:14.504Z,3.08
2022-11-11T20:23:42.569Z,3.70
2022-11-11T20:26:13.343Z,3.10
2022-11-11T20:28:41.524Z,3.38
2022-11-11T20:31:11.692Z,3.50
2022-11-11T20:33:39.746Z,3.30
2022-11-11T20:36:09.499Z,3.17
2022-11-11T20:38:37.169Z,3.42
2022-11-11T20:41:06.955Z,3.42
2022-11-11T20:43:35.659Z,3.65
2022-11-11T20:46:08.580Z,3.88
2022-11-11T20:48:36.225Z,3.20
2022-11-11T20:51:04.347Z,3.22
2022-11-11T20:53:31.897Z,3.95
2022-11-11T20:56:05.080Z,3.58
2022-11-11T20:58:34.023Z,3.67
2022-11-11T21:01:06.402Z,3.30
2022-11-11T21:03:34.514Z,3.83
2022-11-11T21:06:10.676Z,2.92
2022-11-11T21:08:39.906Z,3.47
2022-11-11T21:11:09.326Z,3.55
2022-11-11T21:13:37.698Z,4.95
2022-11-11T21:16:17.455Z,3.88
2022-11-11T21:18:46.730Z,4.80
2022-11-11T21:21:15.544Z,3.80
2022-11-11T21:23:43.228Z,3.85
2022-11-11T21:26:17.282Z,4.07
2022-11-11T21:28:45.631Z,3.42
2022-11-11T21:31:24.988Z,4.00
2022-11-11T21:33:54.030Z,4.20
2022-11-11T21:36:22.993Z,3.83
2022-11-11T21:38:50.620Z,4.13
2022-11-11T21:41:20.071Z,4.50
2022-11-11T21:43:47.653Z,4.10
2022-11-11T21:46:17.550Z,4.13
2022-11-11T21:48:45.539Z,3.85
2022-11-11T21:51:24.010Z,4.28
2022-11-11T21:54:03.283Z,4.13
2022-11-11T21:56:33.390Z,5.30
2022-11-11T21:59:03.270Z,5.43
2022-11-11T22:01:34.031Z,5.13
2022-11-11T22:04:06.950Z,5.18
2022-11-11T22:06:34.812Z,5.85
2022-11-11T22:09:03.202Z,5.90
2022-11-11T22:11:32.894Z,5.50
2022-11-11T22:14:01.829Z,5.70
2022-11-11T22:16:31.693Z,8.20
2022-11-11T22:19:04.768Z,7.68
2022-11-11T22:21:33.228Z,8.00
2022-11-11T22:24:03.390Z,10.52
2022-11-11T22:26:34.174Z,8.57
2022-11-11T22:29:02.727Z,7.35
2022-11-11T22:31:31.273Z,6.85
2022-11-11T22:34:01.323Z,8.48
2022-11-11T22:36:30.902Z,7.87
2022-11-11T22:38:59.071Z,8.57
2022-11-11T22:41:29.651Z,7.70
2022-11-11T22:44:00.562Z,8.48
2022-11-11T22:49:02.999Z,8.02
2022-11-11T22:51:32.031Z,8.02
2022-11-11T22:54:04.923Z,8.15
2022-11-11T22:56:34.192Z,7.07
2022-11-11T22:59:04.204Z,8.55
2022-11-11T23:01:33.058Z,8.57
2022-11-11T23:04:03.070Z,7.75
2022-11-11T23:06:36.128Z,7.50
2022-11-11T23:09:04.963Z,7.82
2022-11-11T23:11:34.067Z,8.23
2022-11-11T23:14:06.595Z,6.90
2022-11-11T23:16:34.717Z,8.00
2022-11-11T23:19:04.478Z,7.90
2022-11-11T23:21:32.651Z,7.90
2022-11-11T23:24:00.136Z,7.30
2022-11-11T23:26:30.191Z,7.32
2022-11-11T23:28:58.253Z,7.13
2022-11-11T23:31:28.097Z,7.30
2022-11-11T23:33:57.667Z,7.20
2022-11-11T23:36:26.879Z,6.90
2022-11-11T23:38:54.557Z,7.57
2022-11-11T23:41:22.038Z,7.35
2022-11-11T23:43:49.411Z,7.35
2022-11-11T23:46:16.838Z,7.25
2022-11-11T23:48:44.489Z,6.70
2022-11-11T23:51:12.061Z,7.63
2022-11-11T23:53:39.442Z,6.60
2022-11-11T23:56:07.203Z,7.00
2022-11-11T23:58:34.697Z,7.93
